Time;durP1;ratioP1;P1;durP2;ratioP2;P2;SDS_P1;SDS_P2;PMS_P1;PMS_P2;Temp;Humidity;BMP_temperature;BMP_pressure;BME280_temperature;BME280_humidity;BME280_pressure;Samples;Min_cycle;Max_cycle;Signal;HPM_P1;HPM_P2
2022/09/19 00:01:29;;;;;;;2.30;2.10;;;;;;;10.36;100.00;97014.69;5174257;27;20043;-57
2022/09/19 00:03:58;;;;;;;2.95;2.30;;;;;;;10.35;100.00;97013.16;5174175;27;20053;-56
2022/09/19 00:06:26;;;;;;;3.30;2.80;;;;;;;10.45;100.00;97012.22;5174126;27;20050;-57
2022/09/19 00:08:53;;;;;;;4.05;2.45;;;;;;;10.51;100.00;97015.25;5173829;27;20046;-56
2022/09/19 00:11:20;;;;;;;2.60;2.40;;;;;;;10.55;100.00;97005.00;5173899;27;20046;-54
2022/09/19 00:13:48;;;;;;;4.63;3.08;;;;;;;10.49;100.00;97006.66;5173677;27;20523;-57
2022/09/19 00:16:20;;;;;;;3.22;2.80;;;;;;;10.37;100.00;97013.53;5173840;27;20050;-56
2022/09/19 00:18:46;;;;;;;4.18;2.33;;;;;;;10.49;100.00;97004.69;5173685;27;20433;-55
2022/09/19 00:21:19;;;;;;;2.70;2.20;;;;;;;10.54;100.00;97025.38;5173674;27;20057;-57
2022/09/19 00:26:29;;;;;;;;;;;;;;;10.31;100.00;97026.13;5174297;27;20054;-57
2022/09/19 00:28:55;;;;;;;2.30;2.10;;;;;;;10.40;100.00;97006.44;5173523;27;19923;-55
2022/09/19 00:31:22;;;;;;;12.63;2.25;;;;;;;10.54;100.00;97017.94;5173646;27;20141;-56
2022/09/19 00:33:49;;;;;;;2.30;2.10;;;;;;;10.47;100.00;97029.00;5173468;27;20050;-58
2022/09/19 00:36:17;;;;;;;2.78;2.10;;;;;;;10.63;100.00;97033.06;5173648;27;20050;-56
2022/09/19 00:38:44;;;;;;;2.40;2.20;;;;;;;10.72;100.00;97036.03;5173488;27;20050;-58
2022/09/19 00:41:14;;;;;;;2.40;2.20;;;;;;;10.76;100.00;97048.50;5173670;27;20445;-58
2022/09/19 00:43:47;;;;;;;2.42;1.92;;;;;;;10.51;100.00;97057.13;5173440;27;20053;-57
2022/09/19 00:46:14;;;;;;;2.58;2.10;;;;;;;10.73;100.00;97054.03;5173425;27;20050;-57
2022/09/19 00:48:43;;;;;;;2.10;1.60;;;;;;;10.78;100.00;97067.25;5173165;27;20053;-55
2022/09/19 00:51:11;;;;;;;2.08;1.90;;;;;;;10.29;100.00;97069.59;5173155;27;20069;-58
2022/09/19 00:53:38;;;;;;;5.38;1.90;;;;;;;10.55;100.00;97057.06;5173149;27;20076;-57
2022/09/19 00:56:05;;;;;;;3.28;1.90;;;;;;;10.53;100.00;97062.16;5172900;27;20050;-58
2022/09/19 00:58:35;;;;;;;2.22;2.03;;;;;;;10.52;100.00;97052.41;5173172;27;20049;-58
2022/09/19 01:01:01;;;;;;;4.20;2.08;;;;;;;10.72;100.00;97064.22;5173188;27;20052;-57
2022/09/19 01:03:29;;;;;;;1.50;1.40;;;;;;;10.70;100.00;97066.63;5173222;27;20085;-56
2022/09/19 01:06:07;;;;;;;1.80;1.70;;;;;;;10.60;100.00;97070.31;5172947;27;20137;-55
2022/09/19 01:09:00;;;;;;;3.70;1.92;;;;;;;10.76;100.00;97080.59;5173195;27;20042;-58
2022/09/19 01:11:56;;;;;;;2.60;1.85;;;;;;;10.84;100.00;97091.03;5172936;27;20046;-58
2022/09/19 01:14:30;;;;;;;3.17;1.95;;;;;;;10.89;100.00;97094.50;5173052;27;20050;-56
2022/09/19 01:17:02;;;;;;;1.92;1.83;;;;;;;10.81;100.00;97122.03;5172709;27;20497;-57
2022/09/19 01:20:13;;;;;;;9.55;1.90;;;;;;;10.72;100.00;97102.59;5172647;27;20512;-59
2022/09/19 01:22:52;;;;;;;1.95;1.73;;;;;;;10.65;100.00;97105.44;5067952;28;20052;-57
2022/09/19 01:25:23;;;;;;;1.85;1.70;;;;;;;10.73;100.00;97119.78;5167709;27;20050;-58
2022/09/19 01:28:06;;;;;;;2.38;2.10;;;;;;;10.60;100.00;97114.16;5172798;27;20057;-58
2022/09/19 01:30:35;;;;;;;2.95;1.70;;;;;;;10.72;100.00;97099.84;5172977;27;20046;-55
2022/09/19 01:33:10;;;;;;;2.28;1.75;;;;;;;10.67;100.00;97108.56;5172717;27;20042;-58
2022/09/19 01:35:39;;;;;;;3.38;2.10;;;;;;;10.90;100.00;97110.53;5172823;27;20057;-56
2022/09/19 01:38:10;;;;;;;2.20;2.00;;;;;;;10.57;100.00;97115.75;5172334;27;20046;-57
2022/09/19 01:40:37;;;;;;;2.05;1.92;;;;;;;10.50;100.00;97104.13;5172475;27;20527;-58
2022/09/19 01:43:06;;;;;;;4.28;2.03;;;;;;;10.45;100.00;97110.06;5172274;27;20437;-58
2022/09/19 01:45:36;;;;;;;2.20;2.00;;;;;;;10.57;100.00;97079.34;5172325;27;20081;-59
2022/09/19 01:48:10;;;;;;;2.15;1.92;;;;;;;10.62;100.00;97078.09;5172430;27;20141;-59
2022/09/19 01:50:46;;;;;;;2.60;2.28;;;;;;;10.64;100.00;97070.25;5172300;27;20046;-58
2022/09/19 01:53:23;;;;;;;2.88;1.70;;;;;;;10.60;100.00;97071.06;5172328;27;20057;-58
2022/09/19 01:55:57;;;;;;;2.05;1.85;;;;;;;10.55;100.00;97081.72;5172093;27;20064;-57
2022/09/19 01:58:31;;;;;;;2.33;2.13;;;;;;;10.59;100.00;97057.78;5172451;27;20089;-57
2022/09/19 02:01:04;;;;;;;4.15;2.25;;;;;;;10.63;100.00;97061.25;5172129;27;20098;-58
2022/09/19 02:03:40;;;;;;;2.30;2.07;;;;;;;10.49;100.00;97069.69;5172171;27;20549;-56
2022/09/19 02:06:12;;;;;;;3.33;2.50;;;;;;;10.44;100.00;97067.44;5172161;27;20053;-55
2022/09/19 02:08:45;;;;;;;3.63;2.45;;;;;;;10.53;100.00;97054.75;5173403;27;20125;-58
2022/09/19 02:11:16;;;;;;;2.40;2.20;;;;;;;10.64;100.00;97062.78;5176295;27;20046;-58
2022/09/19 02:13:48;;;;;;;6.40;2.70;;;;;;;10.56;100.00;97081.31;5175649;27;20046;-59
2022/09/19 02:16:22;;;;;;;2.15;2.00;;;;;;;10.48;100.00;97066.16;5175685;27;20505;-58
2022/09/19 02:18:54;;;;;;;2.55;2.33;;;;;;;10.49;100.00;97064.97;5175640;27;20417;-58
2022/09/19 02:21:28;;;;;;;2.30;2.20;;;;;;;10.63;100.00;97063.19;5175810;27;20046;-57
2022/09/19 02:23:59;;;;;;;2.53;2.33;;;;;;;10.77;100.00;97071.22;5175655;27;20054;-56
2022/09/19 02:26:26;;;;;;;3.25;2.33;;;;;;;10.80;100.00;97076.63;5175566;27;20091;-58
2022/09/19 02:28:56;;;;;;;2.35;2.20;;;;;;;10.55;100.00;97087.19;5175695;27;20057;-55
2022/09/19 02:31:26;;;;;;;2.15;2.05;;;;;;;10.57;100.00;97082.88;5175474;27;20219;-58
2022/09/19 02:33:56;;;;;;;2.90;2.50;;;;;;;10.73;100.00;97089.66;5175668;27;20042;-59
2022/09/19 02:36:27;;;;;;;4.05;2.38;;;;;;;10.75;100.00;97096.28;5175549;27;20104;-57
2022/09/19 02:39:01;;;;;;;2.50;2.30;;;;;;;10.35;100.00;97107.06;5175453;27;20049;-56
2022/09/19 02:41:32;;;;;;;;;;;;;;;10.61;100.00;97082.81;5175742;27;20050;-57
2022/09/19 02:44:05;;;;;;;2.40;2.20;;;;;;;10.53;100.00;97084.88;5175287;27;20302;-56
2022/09/19 02:46:38;;;;;;;2.80;2.30;;;;;;;10.55;100.00;97087.97;5175576;27;20054;-57
2022/09/19 02:49:09;;;;;;;2.27;2.07;;;;;;;10.80;100.00;97081.34;5175326;27;20052;-55
2022/09/19 02:51:39;;;;;;;2.53;2.30;;;;;;;10.75;100.00;97090.78;5175456;27;20098;-59
2022/09/19 02:54:12;;;;;;;3.28;2.40;;;;;;;10.80;100.00;97101.28;5175157;27;20432;-57
2022/09/19 02:56:41;;;;;;;2.53;2.17;;;;;;;10.65;100.00;97113.66;5175497;27;20046;-58
2022/09/19 02:59:12;;;;;;;3.92;2.50;;;;;;;10.67;100.00;97094.84;5175004;27;20046;-55
2022/09/19 03:01:42;;;;;;;2.58;2.38;;;;;;;10.88;100.00;97101.19;5175166;27;20045;-56
2022/09/19 03:04:12;;;;;;;2.83;2.38;;;;;;;10.60;100.00;97127.84;5175018;27;20046;-58
2022/09/19 03:06:43;;;;;;;2.75;2.25;;;;;;;10.80;100.00;97125.97;5175024;27;20525;-57
2022/09/19 03:09:13;;;;;;;2.28;2.08;;;;;;;10.72;100.00;97121.00;5175061;27;20056;-56
2022/09/19 03:11:42;;;;;;;3.20;2.08;;;;;;;10.61;100.00;97110.22;5174732;27;20058;-58
2022/09/19 03:14:10;;;;;;;2.67;2.47;;;;;;;10.77;100.00;97099.38;5174995;27;20051;-55
2022/09/19 03:16:41;;;;;;;3.58;1.85;;;;;;;10.82;100.00;97118.06;5174985;27;20047;-54
2022/09/19 03:19:10;;;;;;;2.20;2.00;;;;;;;10.67;100.00;97108.56;5174968;27;20046;-57
2022/09/19 03:21:37;;;;;;;2.33;2.13;;;;;;;10.76;100.00;97110.75;5174486;27;20050;-56
2022/09/19 03:24:05;;;;;;;2.42;2.20;;;;;;;10.73;100.00;97111.56;5174607;27;20057;-55
2022/09/19 03:26:34;;;;;;;3.75;2.25;;;;;;;10.71;100.00;97128.44;5174663;27;20050;-58
2022/09/19 03:29:02;;;;;;;2.90;2.30;;;;;;;10.83;100.00;97116.13;5174532;27;20054;-56
2022/09/19 03:31:30;;;;;;;2.25;2.05;;;;;;;10.84;100.00;97129.41;5174616;27;20061;-57
2022/09/19 03:33:56;;;;;;;4.22;2.70;;;;;;;10.93;100.00;97128.09;5174542;27;20050;-56
2022/09/19 03:36:23;;;;;;;2.90;2.15;;;;;;;10.58;100.00;97136.47;5174551;27;20057;-55
2022/09/19 03:38:49;;;;;;;2.20;1.98;;;;;;;10.66;100.00;97139.09;5174373;27;20061;-58
2022/09/19 03:41:18;;;;;;;2.42;2.03;;;;;;;10.65;100.00;97148.50;5174436;27;20052;-59
2022/09/19 03:43:45;;;;;;;2.65;2.10;;;;;;;10.67;100.00;97155.13;5174225;27;20050;-58
2022/09/19 03:46:12;;;;;;;2.05;1.95;;;;;;;10.88;100.00;97165.00;5174617;27;20047;-57
2022/09/19 03:48:40;;;;;;;3.58;2.28;;;;;;;10.82;100.00;97177.59;5174167;27;20051;-58
2022/09/19 03:51:07;;;;;;;2.33;1.95;;;;;;;10.84;100.00;97167.78;5174347;27;20054;-58
2022/09/19 03:53:34;;;;;;;2.28;2.08;;;;;;;10.81;100.00;97176.06;5174246;27;20084;-56
2022/09/19 03:56:01;;;;;;;4.20;2.30;;;;;;;10.89;100.00;97176.72;5174119;27;20069;-55
2022/09/19 03:58:28;;;;;;;2.42;2.22;;;;;;;10.47;100.00;97178.91;5174182;27;20065;-58
2022/09/19 04:00:54;;;;;;;2.60;1.95;;;;;;;10.63;100.00;97170.06;5174079;27;20050;-58
2022/09/19 04:03:23;;;;;;;2.75;2.00;;;;;;;10.79;100.00;97164.72;5174092;27;20057;-57
2022/09/19 04:05:51;;;;;;;2.95;2.15;;;;;;;10.64;100.00;97172.41;5173892;27;20046;-59
2022/09/19 04:08:17;;;;;;;2.67;2.15;;;;;;;10.51;100.00;97188.63;5174050;27;20046;-58
2022/09/19 04:10:43;;;;;;;3.08;2.17;;;;;;;10.91;100.00;97171.63;5173848;27;20078;-58
2022/09/19 04:13:10;;;;;;;4.63;2.30;;;;;;;10.72;100.00;97184.03;5174260;27;20499;-58
2022/09/19 04:15:36;;;;;;;6.60;2.47;;;;;;;10.70;100.00;97192.69;5173717;27;20050;-60
2022/09/19 04:18:03;;;;;;;4.53;2.50;;;;;;;10.89;100.00;97188.47;5173770;27;20090;-59
2022/09/19 04:20:30;;;;;;;2.97;2.25;;;;;;;11.04;100.00;97194.53;5173957;27;20047;-59
2022/09/19 04:22:59;;;;;;;3.28;2.55;;;;;;;10.91;100.00;97197.06;5173596;27;20056;-59
2022/09/19 04:25:25;;;;;;;3.03;2.75;;;;;;;11.06;100.00;97198.41;5173776;27;20042;-55
2022/09/19 04:27:52;;;;;;;4.00;2.30;;;;;;;10.86;100.00;97210.44;5173503;27;20501;-58
2022/09/19 04:30:22;;;;;;;2.38;2.17;;;;;;;10.81;100.00;97203.47;5173878;27;20050;-59
2022/09/19 04:32:48;;;;;;;2.70;2.45;;;;;;;11.09;100.00;97188.53;5172896;27;20107;-59
2022/09/19 04:35:15;;;;;;;2.70;2.22;;;;;;;10.92;100.00;97212.31;5173771;27;20057;-58
2022/09/19 04:37:41;;;;;;;3.88;2.67;;;;;;;10.97;100.00;97189.91;5173350;27;20057;-57
2022/09/19 04:40:08;;;;;;;4.50;2.20;;;;;;;11.16;100.00;97204.13;5173927;27;20053;-55
2022/09/19 04:42:35;;;;;;;2.35;2.13;;;;;;;11.15;100.00;97210.81;5173540;27;20079;-56
2022/09/19 04:45:03;;;;;;;5.90;3.17;;;;;;;10.78;100.00;97221.53;5173517;27;20090;-57
2022/09/19 04:47:32;;;;;;;5.38;2.20;;;;;;;11.08;100.00;97203.47;5173423;27;20054;-58
2022/09/19 04:49:59;;;;;;;5.63;2.30;;;;;;;10.89;100.00;97213.13;5173568;27;20057;-59
2022/09/19 04:52:26;;;;;;;1.77;1.67;;;;;;;10.94;100.00;97222.88;5173567;27;20050;-55
2022/09/19 04:54:54;;;;;;;4.60;2.00;;;;;;;11.24;100.00;97213.78;5173316;27;20425;-57
2022/09/19 04:57:21;;;;;;;3.22;1.60;;;;;;;10.92;100.00;97233.47;5173441;27;20054;-59
2022/09/19 04:59:47;;;;;;;2.00;1.88;;;;;;;11.23;100.00;97239.66;5173180;27;20050;-58
2022/09/19 05:02:14;;;;;;;2.33;1.60;;;;;;;11.16;100.00;97237.81;5172944;27;20057;-59
2022/09/19 05:04:41;;;;;;;2.58;1.63;;;;;;;11.43;100.00;97267.16;5172739;27;20621;-57
2022/09/19 05:07:08;;;;;;;1.60;1.50;;;;;;;11.24;100.00;97280.41;5172766;27;20054;-55
2022/09/19 05:09:34;;;;;;;2.67;1.20;;;;;;;11.35;100.00;97274.75;5172852;27;20137;-52
2022/09/19 05:12:01;;;;;;;1.42;1.30;;;;;;;11.12;100.00;97282.94;5172714;27;20088;-52
2022/09/19 05:14:29;;;;;;;5.88;1.60;;;;;;;11.46;100.00;97285.53;5172866;27;20501;-54
2022/09/19 05:16:56;;;;;;;2.17;1.30;;;;;;;11.49;100.00;97290.19;5172577;27;20054;-53
2022/09/19 05:19:22;;;;;;;1.70;1.60;;;;;;;11.46;100.00;97278.09;5172896;27;20046;-56
2022/09/19 05:21:48;;;;;;;1.60;1.50;;;;;;;11.55;100.00;97283.03;5172655;27;20054;-52
2022/09/19 05:24:16;;;;;;;1.80;1.70;;;;;;;11.53;100.00;97304.66;5172720;27;20484;-53
2022/09/19 05:26:42;;;;;;;3.92;1.83;;;;;;;11.18;100.00;97320.44;5172562;27;20497;-52
2022/09/19 05:29:09;;;;;;;1.50;1.40;;;;;;;11.31;100.00;97324.19;5172620;27;20054;-56
2022/09/19 05:31:36;;;;;;;4.72;1.65;;;;;;;11.54;100.00;97326.19;5172244;27;20053;-51
2022/09/19 05:34:03;;;;;;;2.08;1.90;;;;;;;11.60;100.00;97351.19;5172520;27;20137;-51
2022/09/19 05:36:30;;;;;;;1.95;1.77;;;;;;;11.70;100.00;97355.75;5172253;27;20050;-55
2022/09/19 05:38:57;;;;;;;2.45;1.40;;;;;;;11.76;100.00;97378.00;5172060;27;20068;-54
2022/09/19 05:41:23;;;;;;;3.83;2.08;;;;;;;11.76;100.00;97397.22;5172404;27;20050;-51
2022/09/19 05:43:50;;;;;;;1.80;1.70;;;;;;;11.48;100.00;97393.69;5170915;27;20103;-56
2022/09/19 05:46:16;;;;;;;2.08;1.88;;;;;;;11.60;100.00;97381.38;5172528;27;20050;-56
2022/09/19 05:48:43;;;;;;;2.28;2.08;;;;;;;11.69;100.00;97389.09;5172205;27;20085;-54
2022/09/19 05:51:09;;;;;;;2.50;2.30;;;;;;;11.75;100.00;97410.16;5171993;27;20050;-55
2022/09/19 05:53:54;;;;;;;16.13;6.20;;;;;;;11.32;100.00;97412.72;5172126;27;20083;-55
2022/09/19 05:56:21;;;;;;;15.77;6.43;;;;;;;11.49;100.00;97410.94;5172070;27;20042;-55
2022/09/19 05:58:47;;;;;;;7.88;4.55;;;;;;;11.77;100.00;97415.25;5172087;27;20050;-55
2022/09/19 06:01:14;;;;;;;5.57;3.15;;;;;;;11.54;100.00;97415.97;5172056;27;20057;-55
2022/09/19 06:03:40;;;;;;;11.40;2.55;;;;;;;11.51;100.00;97412.09;5171840;27;20047;-53
2022/09/19 06:06:11;;;;;;;4.70;2.42;;;;;;;11.66;100.00;97423.66;5172051;27;20046;-55
2022/09/19 06:08:38;;;;;;;6.22;3.35;;;;;;;11.58;100.00;97435.91;5172186;27;20053;-52
2022/09/19 06:11:05;;;;;;;4.63;2.72;;;;;;;11.69;100.00;97454.97;5171911;27;20062;-55
2022/09/19 06:16:12;;;;;;;4.10;2.60;;;;;;;11.74;100.00;97440.78;5170643;27;20042;-52
2022/09/19 06:18:38;;;;;;;2.40;1.45;;;;;;;11.78;100.00;97466.97;5172019;27;20397;-54
2022/09/19 06:21:05;;;;;;;3.65;2.20;;;;;;;11.72;100.00;97487.06;5172256;27;20105;-55
2022/09/19 06:23:32;;;;;;;4.03;2.05;;;;;;;11.62;100.00;97480.53;5172059;27;20487;-54
2022/09/19 06:25:58;;;;;;;2.00;1.80;;;;;;;11.80;100.00;97493.28;5171934;27;20042;-52
2022/09/19 06:28:24;;;;;;;2.50;2.30;;;;;;;11.87;100.00;97501.44;5171790;27;20046;-52
2022/09/19 06:30:50;;;;;;;2.03;1.85;;;;;;;11.83;100.00;97508.88;5171567;27;20048;-53
2022/09/19 06:33:16;;;;;;;1.77;1.67;;;;;;;11.92;100.00;97520.19;5171659;27;20103;-53
2022/09/19 06:35:42;;;;;;;3.42;1.75;;;;;;;11.62;100.00;97515.44;5171731;27;20420;-54
2022/09/19 06:38:09;;;;;;;4.35;2.70;;;;;;;11.84;100.00;97514.00;5171164;27;20110;-53
2022/09/19 06:40:37;;;;;;;2.42;2.03;;;;;;;11.91;100.00;97522.16;5171853;27;20046;-55
2022/09/19 06:43:05;;;;;;;1.60;1.50;;;;;;;11.97;100.00;97534.22;5171159;27;20053;-51
2022/09/19 06:45:37;;;;;;;2.17;1.98;;;;;;;11.86;100.00;97552.03;5171713;27;20416;-56
2022/09/19 06:48:04;;;;;;;4.10;2.60;;;;;;;11.77;100.00;97563.50;5171313;27;20046;-55
2022/09/19 06:50:31;;;;;;;4.85;3.22;;;;;;;11.98;100.00;97562.47;5171333;27;20090;-58
2022/09/19 06:52:58;;;;;;;2.65;2.00;;;;;;;12.15;100.00;97566.94;5170942;27;20047;-54
2022/09/19 06:55:25;;;;;;;3.97;2.88;;;;;;;12.22;100.00;97580.56;5173625;27;20090;-54
2022/09/19 06:57:56;;;;;;;10.23;3.95;;;;;;;12.27;100.00;97601.31;5174812;27;20597;-54
2022/09/19 07:00:24;;;;;;;3.47;1.55;;;;;;;12.26;100.00;97610.72;5174835;27;20054;-56
2022/09/19 07:02:52;;;;;;;5.90;1.95;;;;;;;12.18;100.00;97623.78;5175146;27;20102;-56
2022/09/19 07:05:18;;;;;;;1.58;1.48;;;;;;;12.24;100.00;97627.66;5174778;27;20186;-53
2022/09/19 07:07:45;;;;;;;6.53;2.60;;;;;;;11.87;100.00;97620.28;5174998;27;20050;-55
2022/09/19 07:10:11;;;;;;;2.78;1.70;;;;;;;12.11;100.00;97626.63;5174778;27;20050;-57
2022/09/19 07:12:37;;;;;;;3.90;1.52;;;;;;;12.01;100.00;97622.84;5175073;27;20134;-57
2022/09/19 07:15:05;;;;;;;1.85;1.73;;;;;;;12.24;100.00;97624.13;5174716;27;20137;-54
2022/09/19 07:17:31;;;;;;;1.92;1.75;;;;;;;12.45;100.00;97631.28;5174726;27;20409;-53
2022/09/19 07:19:58;;;;;;;1.67;1.40;;;;;;;12.45;100.00;97631.28;5174935;27;20052;-57
2022/09/19 07:22:24;;;;;;;2.42;2.17;;;;;;;12.51;100.00;97631.59;5174494;27;20129;-56
2022/09/19 07:24:50;;;;;;;2.10;1.90;;;;;;;12.72;100.00;97648.53;5174443;27;20049;-53
2022/09/19 07:27:16;;;;;;;3.47;2.15;;;;;;;12.41;100.00;97649.81;5174691;27;20182;-52
2022/09/19 07:29:42;;;;;;;2.92;1.60;;;;;;;12.81;100.00;97659.03;5174528;27;20102;-57
2022/09/19 07:32:09;;;;;;;2.50;1.15;;;;;;;12.72;100.00;97662.28;5174254;27;20046;-54
2022/09/19 07:34:35;;;;;;;1.92;1.50;;;;;;;12.93;100.00;97674.97;5174508;27;20560;-52
2022/09/19 07:37:02;;;;;;;4.55;2.13;;;;;;;12.86;100.00;97671.53;5174152;27;20046;-56
2022/09/19 07:39:28;;;;;;;6.22;3.30;;;;;;;12.95;100.00;97675.31;5174711;27;20095;-53
2022/09/19 07:41:54;;;;;;;5.45;2.60;;;;;;;13.07;100.00;97673.97;5174379;27;20050;-57
2022/09/19 07:44:20;;;;;;;18.52;3.20;;;;;;;13.31;100.00;97657.47;5174418;27;20137;-53
2022/09/19 07:47:26;;;;;;;3.97;2.90;;;;;;;13.26;100.00;97657.94;5174208;27;20425;-57
2022/09/19 07:49:34;;;;;;;5.95;2.20;;;;;;;12.91;100.00;97676.56;5173935;27;20050;-54
2022/09/19 07:52:00;;;;;;;4.80;2.50;;;;;;;13.16;100.00;97667.91;5174063;27;20046;-57
2022/09/19 07:54:27;;;;;;;6.03;2.45;;;;;;;12.86;100.00;97669.56;5173879;27;20054;-56
2022/09/19 07:56:53;;;;;;;10.50;2.28;;;;;;;13.39;100.00;97669.91;5174204;27;20050;-55
2022/09/19 07:59:19;;;;;;;3.28;1.60;;;;;;;13.47;100.00;97619.03;5173929;27;20046;-55
2022/09/19 08:01:45;;;;;;;7.38;3.38;;;;;;;13.53;100.00;97611.06;5174042;27;20046;-58
2022/09/19 08:04:12;;;;;;;3.33;1.70;;;;;;;13.49;100.00;97549.78;5173790;27;20057;-57
2022/09/19 08:06:39;;;;;;;17.05;2.92;;;;;;;13.56;100.00;97528.41;5172836;27;20050;-53
2022/09/19 08:09:05;;;;;;;6.07;2.58;;;;;;;13.71;100.00;97541.88;5173573;27;20133;-53
2022/09/19 08:11:35;;;;;;;4.10;1.88;;;;;;;13.68;100.00;97548.25;5173865;27;20065;-56
2022/09/19 08:14:01;;;;;;;14.93;4.32;;;;;;;13.63;100.00;97572.31;5173784;27;20114;-54
2022/09/19 08:16:27;;;;;;;8.82;2.65;;;;;;;13.70;100.00;97617.44;5173556;27;20053;-51
2022/09/19 08:18:54;;;;;;;6.53;2.45;;;;;;;13.53;100.00;97600.84;5174016;27;20081;-57
2022/09/19 08:21:20;;;;;;;3.45;2.50;;;;;;;13.31;100.00;97599.69;5173782;27;20056;-54
2022/09/19 08:23:47;;;;;;;2.65;1.45;;;;;;;13.64;100.00;97584.88;5173712;27;20118;-54
2022/09/19 08:26:13;;;;;;;4.47;2.35;;;;;;;13.60;100.00;97614.47;5173382;27;20429;-53
2022/09/19 08:28:39;;;;;;;6.88;2.67;;;;;;;13.19;100.00;97606.53;5173699;27;20054;-56
2022/09/19 08:31:07;;;;;;;1.83;1.58;;;;;;;13.48;100.00;97636.34;5173427;27;20042;-56
2022/09/19 08:33:33;;;;;;;4.55;1.70;;;;;;;13.78;100.00;97605.09;5173576;27;20049;-55
2022/09/19 08:36:00;;;;;;;9.88;2.88;;;;;;;13.63;100.00;97572.31;5173536;27;20050;-57
2022/09/19 08:38:27;;;;;;;15.27;3.28;;;;;;;13.83;100.00;97555.78;5173524;27;20050;-57
2022/09/19 08:41:14;;;;;;;6.85;2.60;;;;;;;14.04;100.00;97546.28;5173372;27;20050;-57
2022/09/19 08:43:52;;;;;;;8.38;2.25;;;;;;;13.48;100.00;97582.06;5173105;27;20050;-56
2022/09/19 08:46:26;;;;;;;4.60;2.40;;;;;;;13.42;100.00;97641.53;5173720;27;20576;-58
2022/09/19 08:48:58;;;;;;;6.00;3.00;;;;;;;13.00;100.00;97668.56;5173227;27;20133;-56
2022/09/19 08:51:29;;;;;;;8.07;2.75;;;;;;;13.35;100.00;97656.22;5173166;27;20053;-58
2022/09/19 08:54:00;;;;;;;5.93;2.67;;;;;;;13.43;100.00;97698.16;5173037;27;20110;-57
2022/09/19 08:56:28;;;;;;;14.77;3.65;;;;;;;13.10;100.00;97686.88;5173421;27;20054;-57
2022/09/19 08:59:01;;;;;;;11.13;4.13;;;;;;;13.45;100.00;97700.50;5173335;27;20779;-56
2022/09/19 09:01:32;;;;;;;12.23;4.88;;;;;;;13.62;100.00;97669.88;5173097;27;20076;-57
2022/09/19 09:04:19;;;;;;;9.30;3.38;;;;;;;13.66;100.00;97606.47;5172934;27;20141;-58
2022/09/19 09:07:00;;;;;;;6.53;2.83;;;;;;;13.62;100.00;97622.28;5170327;27;20131;-55
2022/09/19 09:09:38;;;;;;;8.70;3.40;;;;;;;13.64;100.00;97642.72;5172945;27;20050;-57
2022/09/19 09:12:13;;;;;;;12.75;4.40;;;;;;;13.51;100.00;97633.53;5172899;27;20046;-54
2022/09/19 09:14:57;;;;;;;10.48;3.40;;;;;;;13.64;100.00;97666.72;5173077;27;20114;-56
2022/09/19 09:17:37;;;;;;;2.63;1.60;;;;;;;13.86;100.00;97625.75;5172373;27;20522;-56
2022/09/19 09:20:17;;;;;;;7.97;4.70;;;;;;;13.53;100.00;97614.63;5172830;27;20509;-57
2022/09/19 09:22:48;;;;;;;5.10;1.65;;;;;;;13.87;100.00;97597.03;5173066;27;20074;-57
2022/09/19 09:25:20;;;;;;;2.08;1.42;;;;;;;13.83;100.00;97588.84;5172701;27;20068;-58
2022/09/19 09:27:57;;;;;;;2.45;1.15;;;;;;;13.89;100.00;97554.09;5172791;27;20567;-56
2022/09/19 09:30:23;;;;;;;6.95;1.73;;;;;;;13.92;100.00;97546.16;5172692;27;20046;-57
2022/09/19 09:32:56;;;;;;;5.00;2.25;;;;;;;14.04;100.00;97531.72;5172674;27;20054;-58
2022/09/19 09:35:33;;;;;;;1.55;1.40;;;;;;;13.85;100.00;97480.97;5172498;27;20042;-57
2022/09/19 09:38:08;;;;;;;1.45;1.35;;;;;;;14.06;100.00;97482.47;5172150;27;20497;-58
2022/09/19 09:43:45;;;;;;;4.70;2.03;;;;;;;14.19;100.00;97491.59;5172509;27;20046;-57
2022/09/19 09:46:18;;;;;;;4.22;1.35;;;;;;;14.23;100.00;97450.19;5172168;27;20046;-57
2022/09/19 09:48:45;;;;;;;4.63;1.60;;;;;;;14.32;100.00;97400.75;5172135;27;20501;-58
2022/09/19 09:51:25;;;;;;;3.63;2.75;;;;;;;14.05;100.00;97420.31;5172408;27;20133;-57
2022/09/19 09:57:06;;;;;;;2.75;1.60;;;;;;;14.37;100.00;97339.59;5171205;27;20057;-56
2022/09/19 10:05:28;;;;;;;2.90;1.65;;;;;;;14.25;100.00;97411.94;5172179;27;20536;-57
2022/09/19 10:08:05;;;;;;;5.18;3.10;;;;;;;14.53;100.00;97388.44;5171980;27;20100;-57
2022/09/19 10:10:33;;;;;;;2.50;1.63;;;;;;;14.80;100.00;97432.25;5172050;27;20093;-57
2022/09/19 10:13:08;;;;;;;3.80;1.80;;;;;;;15.55;100.00;97264.41;5172325;27;20133;-58
2022/09/19 10:15:40;;;;;;;1.73;1.60;;;;;;;15.47;100.00;96917.94;5172159;27;20454;-59
2022/09/19 10:18:09;;;;;;;1.40;1.25;;;;;;;16.24;100.00;96790.94;5171905;27;20462;-58
2022/09/19 10:20:38;;;;;;;1.90;1.25;;;;;;;16.07;100.00;96715.84;5172118;27;20050;-55
2022/09/19 10:23:13;;;;;;;2.05;1.92;;;;;;;16.24;100.00;96730.13;5171889;27;20058;-57
2022/09/19 10:25:39;;;;;;;1.73;1.42;;;;;;;16.06;100.00;96636.94;5172305;27;20050;-59
2022/09/19 10:28:24;;;;;;;3.75;1.23;;;;;;;16.33;100.00;96622.28;5171584;27;20505;-57
2022/09/19 10:30:57;;;;;;;1.55;1.20;;;;;;;16.04;100.00;96655.97;5175020;27;20042;-58
2022/09/19 10:33:38;;;;;;;1.23;1.13;;;;;;;15.98;100.00;96740.72;5175676;27;20103;-57
2022/09/19 10:36:14;;;;;;;3.05;1.80;;;;;;;15.94;100.00;96721.53;5175263;27;20643;-59
2022/09/19 10:38:48;;;;;;;2.20;1.55;;;;;;;16.38;100.00;96688.00;5175601;27;20047;-55
2022/09/19 10:41:15;;;;;;;1.80;1.30;;;;;;;16.12;100.00;96659.94;5175241;27;20046;-59
2022/09/19 10:43:46;;;;;;;2.25;1.48;;;;;;;16.15;100.00;96603.75;5175506;27;20401;-59
2022/09/19 10:46:18;;;;;;;1.33;1.23;;;;;;;16.97;100.00;96559.66;5175262;27;20046;-58
2022/09/19 10:48:52;;;;;;;1.23;1.10;;;;;;;16.33;100.00;96649.19;5175382;27;20382;-55
2022/09/19 10:51:19;;;;;;;2.05;1.58;;;;;;;16.26;100.00;96619.84;5175099;27;20145;-58
2022/09/19 10:53:52;;;;;;;1.65;1.40;;;;;;;15.99;100.00;96654.59;5175155;27;20053;-56
2022/09/19 10:56:24;;;;;;;1.60;1.50;;;;;;;16.64;100.00;96607.44;5175048;27;20186;-59
2022/09/19 10:59:00;;;;;;;2.25;1.67;;;;;;;16.84;100.00;96574.47;5174868;27;20133;-57
2022/09/19 11:01:27;;;;;;;2.90;1.60;;;;;;;16.55;100.00;96648.94;5174897;27;20548;-54
2022/09/19 11:04:02;;;;;;;2.58;2.20;;;;;;;16.36;100.00;96728.41;5174708;27;20523;-58
2022/09/19 11:06:29;;;;;;;1.40;1.30;;;;;;;16.09;100.00;96622.19;5174938;27;20088;-56
2022/09/19 11:08:56;;;;;;;2.40;1.90;;;;;;;16.21;100.00;96731.03;5174848;27;20497;-55
2022/09/19 11:11:36;;;;;;;3.75;3.25;;;;;;;16.08;100.00;96706.31;5175058;27;20572;-58
2022/09/19 11:14:28;;;;;;;2.45;1.33;;;;;;;16.16;100.00;96685.44;5174735;27;20075;-58
2022/09/19 11:17:29;;;;;;;3.88;1.70;;;;;;;15.56;100.00;96671.44;5170549;27;20050;-56
2022/09/19 11:20:17;;;;;;;1.77;1.35;;;;;;;15.46;100.00;96837.09;5134518;27;20129;-58
2022/09/19 11:23:13;;;;;;;0.93;0.80;;;;;;;15.12;100.00;96873.09;5174645;27;20053;-57
2022/09/19 11:25:48;;;;;;;7.32;1.80;;;;;;;14.71;100.00;97168.06;5174431;27;20042;-56
2022/09/19 11:28:23;;;;;;;3.08;2.05;;;;;;;14.42;100.00;97404.44;5174472;27;20114;-58
2022/09/19 11:31:02;;;;;;;6.95;1.17;;;;;;;14.03;100.00;97645.91;5174547;27;20054;-57
2022/09/19 11:33:45;;;;;;;2.70;0.90;;;;;;;13.92;100.00;97659.88;5174308;27;20046;-58
2022/09/19 11:36:19;;;;;;;0.95;0.90;;;;;;;13.83;100.00;97844.25;5174371;27;20042;-58
2022/09/19 11:38:50;;;;;;;;;;;;;;;13.68;100.00;97897.97;5175019;27;20050;-58
2022/09/19 11:41:25;;;;;;;1.95;0.82;;;;;;;13.33;100.00;97911.06;5174103;27;19960;-58
2022/09/19 11:44:07;;;;;;;3.25;1.13;;;;;;;13.40;100.00;97921.97;5174335;27;20050;-57
2022/09/19 11:46:42;;;;;;;1.20;1.00;;;;;;;13.34;100.00;97968.44;5174664;27;20046;-58
2022/09/19 11:49:51;;;;;;;3.45;3.00;;;;;;;13.35;100.00;97997.53;5174455;27;20248;-57
2022/09/19 11:52:28;;;;;;;2.70;2.15;;;;;;;13.17;100.00;98011.47;5143427;27;20137;-56
2022/09/19 11:55:10;;;;;;;1.48;1.38;;;;;;;13.18;100.00;98013.03;5173586;27;20046;-56
2022/09/19 11:57:41;;;;;;;1.83;1.30;;;;;;;13.10;100.00;98006.03;5173800;27;20133;-57